createdAt,value
2023-02-27T00:01:15.091Z,1.90
2023-02-27T00:03:42.064Z,1.65
2023-02-27T00:06:09.104Z,3.10
2023-02-27T00:08:36.193Z,1.90
2023-02-27T00:11:03.211Z,1.70
2023-02-27T00:13:30.261Z,1.52
2023-02-27T00:15:57.312Z,1.80
2023-02-27T00:18:24.322Z,1.83
2023-02-27T00:20:51.380Z,2.00
2023-02-27T00:23:18.478Z,1.90
2023-02-27T00:25:45.582Z,2.08
2023-02-27T00:28:12.624Z,2.53
2023-02-27T00:30:39.937Z,3.03
2023-02-27T00:33:07.341Z,2.00
2023-02-27T00:35:34.666Z,1.98
2023-02-27T00:38:02.154Z,2.63
2023-02-27T00:40:30.673Z,1.88
2023-02-27T00:42:57.746Z,1.80
2023-02-27T00:45:24.706Z,1.42
2023-02-27T00:47:51.672Z,1.88
2023-02-27T00:50:18.846Z,1.77
2023-02-27T00:52:45.921Z,2.03
2023-02-27T00:55:12.899Z,1.60
2023-02-27T00:57:40.611Z,2.03
2023-02-27T01:00:08.976Z,1.70
2023-02-27T01:02:36.152Z,2.17
2023-02-27T01:05:03.659Z,1.90
2023-02-27T01:07:31.417Z,1.75
2023-02-27T01:09:58.997Z,1.83
2023-02-27T01:12:26.100Z,1.80
2023-02-27T01:14:53.076Z,2.00
2023-02-27T01:17:20.110Z,2.38
2023-02-27T01:19:47.204Z,1.60
2023-02-27T01:22:14.246Z,1.85
2023-02-27T01:24:41.454Z,2.63
2023-02-27T01:27:08.429Z,1.92
2023-02-27T01:29:35.433Z,2.30
2023-02-27T01:32:02.547Z,2.47
2023-02-27T01:34:29.614Z,2.25
2023-02-27T01:36:56.587Z,2.20
2023-02-27T01:39:23.621Z,2.72
2023-02-27T01:41:50.641Z,2.53
2023-02-27T01:44:17.936Z,2.42
2023-02-27T01:46:45.292Z,2.40
2023-02-27T01:49:33.579Z,4.25
2023-02-27T01:52:06.130Z,2.40
2023-02-27T01:54:38.672Z,2.90
2023-02-27T01:57:07.235Z,3.55
2023-02-27T01:59:36.216Z,3.65
2023-02-27T02:02:07.837Z,3.60
2023-02-27T02:04:38.361Z,3.67
2023-02-27T02:07:12.551Z,3.10
2023-02-27T02:09:45.480Z,2.95
2023-02-27T02:12:15.100Z,8.25
2023-02-27T02:14:42.115Z,3.63
2023-02-27T02:17:35.572Z,3.42
2023-02-27T02:20:42.380Z,3.65
2023-02-27T02:23:49.073Z,3.85
2023-02-27T02:26:40.688Z,3.40
2023-02-27T02:29:48.127Z,3.13
2023-02-27T02:32:44.902Z,2.35
2023-02-27T02:35:44.187Z,2.28
2023-02-27T02:38:50.938Z,2.30
2023-02-27T02:41:57.625Z,2.38
2023-02-27T02:45:04.646Z,2.60
2023-02-27T02:48:11.355Z,2.95
2023-02-27T02:50:56.213Z,3.00
2023-02-27T02:54:02.938Z,3.55
2023-02-27T02:56:54.133Z,4.43
2023-02-27T02:59:37.007Z,5.20
2023-02-27T03:02:27.213Z,5.82
2023-02-27T03:05:00.033Z,5.40
2023-02-27T03:07:51.446Z,6.63
2023-02-27T03:10:25.375Z,5.50
2023-02-27T03:12:59.727Z,7.10
2023-02-27T03:15:33.786Z,7.38
2023-02-27T03:18:10.280Z,7.32
2023-02-27T03:20:43.648Z,8.93
2023-02-27T03:23:16.192Z,8.60
2023-02-27T03:25:46.451Z,8.18
2023-02-27T03:28:21.126Z,6.28
2023-02-27T03:31:11.608Z,6.22
2023-02-27T03:33:47.544Z,6.00
2023-02-27T03:36:39.979Z,4.38
2023-02-27T03:39:32.956Z,4.97
2023-02-27T03:42:27.960Z,5.93
2023-02-27T03:45:34.704Z,5.47
2023-02-27T03:48:02.961Z,5.97
2023-02-27T03:50:30.236Z,5.43
2023-02-27T03:52:57.815Z,4.80
2023-02-27T03:55:32.940Z,3.22
2023-02-27T03:58:00.765Z,2.40
2023-02-27T04:00:29.060Z,2.35
2023-02-27T04:02:59.957Z,2.53
2023-02-27T04:05:28.846Z,2.22
2023-02-27T04:08:26.794Z,2.15
2023-02-27T04:11:21.467Z,1.98
2023-02-27T04:14:09.974Z,2.10
2023-02-27T04:17:16.665Z,2.33
2023-02-27T04:20:13.596Z,2.00
2023-02-27T04:22:51.832Z,2.25
2023-02-27T04:25:58.525Z,2.05
2023-02-27T04:28:33.523Z,2.10
2023-02-27T04:31:40.377Z,2.90
2023-02-27T04:34:33.014Z,1.85
2023-02-27T04:37:27.251Z,2.35
2023-02-27T04:40:05.588Z,2.33
2023-02-27T04:42:37.891Z,2.72
2023-02-27T04:45:08.821Z,2.35
2023-02-27T04:47:42.394Z,2.63
2023-02-27T04:50:19.601Z,2.97
2023-02-27T04:52:55.550Z,3.53
2023-02-27T04:55:28.764Z,2.95
2023-02-27T04:58:03.382Z,3.30
2023-02-27T05:00:32.968Z,3.35
2023-02-27T05:03:22.091Z,3.45
2023-02-27T05:05:50.489Z,3.55
2023-02-27T05:08:41.299Z,3.40
2023-02-27T05:11:15.632Z,4.45
2023-02-27T05:14:06.283Z,3.88
2023-02-27T05:16:54.511Z,3.72
2023-02-27T05:19:21.798Z,3.63
2023-02-27T05:22:05.993Z,3.17
2023-02-27T05:24:59.821Z,3.22
2023-02-27T05:27:50.024Z,3.65
2023-02-27T05:30:40.740Z,3.75
2023-02-27T05:33:30.716Z,3.30
2023-02-27T05:36:55.534Z,3.28
2023-02-27T05:39:24.878Z,2.85
2023-02-27T05:41:58.916Z,2.75
2023-02-27T05:44:31.556Z,3.38
2023-02-27T05:47:05.080Z,5.43
2023-02-27T05:49:39.003Z,3.35
2023-02-27T05:52:11.089Z,3.40
2023-02-27T05:55:00.075Z,3.65
2023-02-27T05:57:41.926Z,3.45
2023-02-27T06:00:39.982Z,3.63
2023-02-27T06:03:07.223Z,3.33
2023-02-27T06:05:35.759Z,3.60
2023-02-27T06:08:02.785Z,4.15
2023-02-27T06:10:29.997Z,4.05
2023-02-27T06:12:57.079Z,5.18
2023-02-27T06:15:24.169Z,5.97
2023-02-27T06:17:51.309Z,4.18
2023-02-27T06:20:18.730Z,4.68
2023-02-27T06:22:45.683Z,4.15
2023-02-27T06:25:13.422Z,5.05
2023-02-27T06:27:40.430Z,5.72
2023-02-27T06:30:08.172Z,4.80
2023-02-27T06:32:35.141Z,5.35
2023-02-27T06:35:02.217Z,4.22
2023-02-27T06:37:29.236Z,5.70
2023-02-27T06:39:56.192Z,6.10
2023-02-27T06:42:23.660Z,5.28
2023-02-27T06:44:50.719Z,5.25
2023-02-27T06:47:18.181Z,5.18
2023-02-27T06:49:45.197Z,5.60
2023-02-27T06:52:12.222Z,6.03
2023-02-27T06:54:39.267Z,6.65
2023-02-27T06:57:06.664Z,5.43
2023-02-27T06:59:33.714Z,4.18
2023-02-27T07:02:01.411Z,4.35
2023-02-27T07:04:28.533Z,4.20
2023-02-27T07:07:34.079Z,4.57
2023-02-27T07:09:42.636Z,5.35
2023-02-27T07:12:09.693Z,4.20
2023-02-27T07:14:36.676Z,4.57
2023-02-27T07:17:04.768Z,4.72
2023-02-27T07:19:33.812Z,4.90
2023-02-27T07:22:00.879Z,5.45
2023-02-27T07:24:27.888Z,4.72
2023-02-27T07:26:55.106Z,4.68
2023-02-27T07:29:22.243Z,5.18
2023-02-27T07:31:49.441Z,4.60
2023-02-27T07:34:16.565Z,4.63
2023-02-27T07:36:43.678Z,5.03
2023-02-27T07:39:12.697Z,6.85
2023-02-27T07:41:39.752Z,13.68
2023-02-27T07:44:08.727Z,11.68
2023-02-27T07:46:36.560Z,10.48
2023-02-27T07:49:03.680Z,10.32
2023-02-27T07:51:31.559Z,8.98
2023-02-27T07:53:59.019Z,10.65
2023-02-27T07:56:27.395Z,10.13
2023-02-27T07:58:54.815Z,10.38
2023-02-27T08:01:21.913Z,11.70
2023-02-27T08:03:48.922Z,13.63
2023-02-27T08:06:16.002Z,12.68
2023-02-27T08:08:43.073Z,14.35
2023-02-27T08:11:10.823Z,15.18
2023-02-27T08:16:25.196Z,5.15
2023-02-27T08:18:52.407Z,5.30
2023-02-27T08:21:19.816Z,5.88
2023-02-27T08:23:46.781Z,5.65
2023-02-27T08:26:14.117Z,5.60
2023-02-27T08:28:41.447Z,6.03
2023-02-27T08:31:08.481Z,6.03
2023-02-27T08:36:40.605Z,6.65
2023-02-27T08:39:08.738Z,6.50
2023-02-27T08:41:36.647Z,6.47
2023-02-27T08:44:04.116Z,6.63
2023-02-27T08:46:31.185Z,6.03
2023-02-27T08:48:58.177Z,6.20
2023-02-27T08:51:25.433Z,5.47
2023-02-27T08:53:55.073Z,5.53
2023-02-27T08:56:22.050Z,5.40
2023-02-27T08:58:49.113Z,5.80
2023-02-27T09:01:16.671Z,5.13
2023-02-27T09:03:43.796Z,5.00
2023-02-27T09:06:10.877Z,5.50
2023-02-27T09:08:37.971Z,5.87
2023-02-27T09:11:05.568Z,5.53
2023-02-27T09:13:32.708Z,5.47
2023-02-27T09:15:59.768Z,5.37
2023-02-27T09:18:26.789Z,5.33
2023-02-27T09:20:53.759Z,6.20
2023-02-27T09:23:20.863Z,5.63
2023-02-27T09:25:48.142Z,4.43
2023-02-27T09:28:15.660Z,4.37
2023-02-27T09:30:42.691Z,4.33
2023-02-27T09:33:10.035Z,4.90
2023-02-27T09:35:37.571Z,3.50
2023-02-27T09:38:04.826Z,3.10
2023-02-27T09:40:38.745Z,2.90
2023-02-27T09:43:14.711Z,2.47
2023-02-27T09:45:43.183Z,2.07
2023-02-27T09:48:49.918Z,3.47
2023-02-27T09:53:47.580Z,2.23
2023-02-27T09:56:35.662Z,2.30
2023-02-27T09:59:42.357Z,1.80
2023-02-27T10:05:27.665Z,2.20
2023-02-27T10:08:22.767Z,1.80
2023-02-27T10:11:13.063Z,1.93
2023-02-27T10:14:19.823Z,3.43
2023-02-27T10:16:50.852Z,2.37
2023-02-27T10:19:28.580Z,2.23
2023-02-27T10:21:58.264Z,2.93
2023-02-27T10:24:54.402Z,1.80
2023-02-27T10:27:22.713Z,3.05
2023-02-27T10:29:50.324Z,2.00
2023-02-27T10:32:38.805Z,1.77
2023-02-27T10:35:45.634Z,1.60
2023-02-27T10:38:19.775Z,2.23
2023-02-27T10:40:48.049Z,1.83
2023-02-27T10:43:18.513Z,2.67
2023-02-27T10:45:45.697Z,1.93
2023-02-27T10:48:14.619Z,1.70
2023-02-27T10:50:44.421Z,1.83
2023-02-27T10:53:25.589Z,1.70
2023-02-27T10:56:04.543Z,1.80
2023-02-27T10:58:35.189Z,1.87
2023-02-27T11:01:05.324Z,1.60
2023-02-27T11:03:36.316Z,1.40
2023-02-27T11:06:25.884Z,1.90
2023-02-27T11:09:33.775Z,1.80
2023-02-27T11:12:26.587Z,2.57
2023-02-27T11:14:56.319Z,1.93
2023-02-27T11:17:44.004Z,1.90
2023-02-27T11:20:36.453Z,1.90
2023-02-27T11:23:06.543Z,1.63
2023-02-27T11:25:34.130Z,1.90
2023-02-27T11:28:40.791Z,2.10
2023-02-27T11:33:50.738Z,2.30
2023-02-27T11:36:18.096Z,1.50
2023-02-27T11:38:54.352Z,1.70
2023-02-27T11:41:30.452Z,2.10
2023-02-27T11:43:59.042Z,2.57
2023-02-27T11:46:46.936Z,2.20
2023-02-27T11:49:46.242Z,2.20
2023-02-27T11:52:23.384Z,2.00
2023-02-27T11:54:56.373Z,2.20
2023-02-27T11:57:46.357Z,1.60
2023-02-27T12:00:52.148Z,2.20
2023-02-27T12:03:46.395Z,2.17
2023-02-27T12:06:21.920Z,2.20
2023-02-27T12:08:56.480Z,1.57
2023-02-27T12:11:29.921Z,1.40
2023-02-27T12:14:21.409Z,1.60
2023-02-27T12:16:54.384Z,1.90
2023-02-27T12:19:44.846Z,1.37
2023-02-27T12:22:32.749Z,1.87
2023-02-27T12:25:14.448Z,1.80
2023-02-27T12:28:21.278Z,1.60
2023-02-27T12:31:05.372Z,1.90
2023-02-27T12:33:59.359Z,2.13
2023-02-27T12:36:26.457Z,1.67
2023-02-27T12:38:53.748Z,3.07
2023-02-27T12:41:37.145Z,2.13
2023-02-27T12:44:31.763Z,1.90
2023-02-27T12:47:32.905Z,2.30
2023-02-27T12:50:20.851Z,2.43
2023-02-27T12:53:27.493Z,2.30
2023-02-27T12:56:01.469Z,2.13
2023-02-27T12:59:08.171Z,1.60
2023-02-27T13:04:54.912Z,2.50
2023-02-27T13:07:35.955Z,1.87
2023-02-27T13:10:26.036Z,2.37
2023-02-27T13:13:01.537Z,1.97
2023-02-27T13:15:33.979Z,2.13
2023-02-27T13:18:40.698Z,2.10
2023-02-27T13:24:26.344Z,1.70
2023-02-27T13:27:17.820Z,2.10
2023-02-27T13:29:54.260Z,2.43
2023-02-27T13:36:24.436Z,2.10
2023-02-27T13:38:55.236Z,2.43
2023-02-27T13:41:39.522Z,2.37
2023-02-27T13:44:46.270Z,1.97
2023-02-27T13:47:41.821Z,2.50
2023-02-27T13:50:40.976Z,2.17
2023-02-27T13:53:11.042Z,3.07
2023-02-27T13:55:40.080Z,2.40
2023-02-27T13:58:18.752Z,2.07
2023-02-27T14:00:55.764Z,2.20
2023-02-27T14:03:26.117Z,2.20
2023-02-27T14:05:56.233Z,2.30
2023-02-27T14:08:28.471Z,2.30
2023-02-27T14:11:20.842Z,2.47
2023-02-27T14:14:09.244Z,2.20
2023-02-27T14:16:56.581Z,2.90
2023-02-27T14:19:47.972Z,2.63
2023-02-27T14:22:37.414Z,2.23
2023-02-27T14:25:32.235Z,2.20
2023-02-27T14:28:00.344Z,2.50
2023-02-27T14:30:58.687Z,2.23
2023-02-27T14:33:40.531Z,2.53
2023-02-27T14:36:27.242Z,3.00
2023-02-27T14:38:57.556Z,3.07
2023-02-27T14:42:04.365Z,2.63
2023-02-27T14:44:41.766Z,2.70
2023-02-27T14:47:18.422Z,2.63
2023-02-27T14:49:47.973Z,2.43
2023-02-27T14:52:41.985Z,2.60
2023-02-27T14:55:30.121Z,1.80
2023-02-27T14:58:18.725Z,2.40
2023-02-27T15:01:08.395Z,2.80
2023-02-27T15:03:42.188Z,3.23
2023-02-27T15:06:47.230Z,2.70
2023-02-27T15:09:37.212Z,1.80
2023-02-27T15:12:05.254Z,3.00
2023-02-27T15:14:37.009Z,7.07
2023-02-27T15:17:14.138Z,2.73
2023-02-27T15:19:48.069Z,4.90
2023-02-27T15:22:28.942Z,3.60
2023-02-27T15:25:05.159Z,2.37
2023-02-27T15:27:33.778Z,3.33
2023-02-27T15:30:01.125Z,3.13
2023-02-27T15:32:44.520Z,2.93
2023-02-27T15:35:36.785Z,2.83
2023-02-27T15:38:05.181Z,3.17
2023-02-27T15:40:34.299Z,3.13
2023-02-27T15:43:01.792Z,3.00
2023-02-27T15:45:34.094Z,3.17
2023-02-27T15:48:01.491Z,2.70
2023-02-27T15:50:33.834Z,4.23
2023-02-27T15:53:24.681Z,4.00
2023-02-27T15:55:56.452Z,6.30
2023-02-27T15:58:49.110Z,6.57
2023-02-27T16:01:36.244Z,5.80
2023-02-27T16:04:07.872Z,5.90
2023-02-27T16:06:39.574Z,6.03
2023-02-27T16:09:31.915Z,6.85
2023-02-27T16:12:38.613Z,6.57
2023-02-27T16:15:45.356Z,5.68
2023-02-27T16:18:52.115Z,5.82
2023-02-27T16:21:39.022Z,5.13
2023-02-27T16:24:30.159Z,4.95
2023-02-27T16:26:57.449Z,5.55
2023-02-27T16:29:33.679Z,5.32
2023-02-27T16:32:00.954Z,7.57
2023-02-27T16:34:46.547Z,8.00
2023-02-27T16:37:23.111Z,9.80
2023-02-27T16:39:52.348Z,16.52
2023-02-27T16:42:19.552Z,17.40
2023-02-27T16:44:46.661Z,17.13
2023-02-27T16:47:13.726Z,18.13
2023-02-27T16:49:40.741Z,18.38
2023-02-27T16:52:12.163Z,12.52
2023-02-27T16:54:39.180Z,13.75
2023-02-27T16:57:06.211Z,10.60
2023-02-27T16:59:36.296Z,6.85
2023-02-27T17:02:06.061Z,6.53
2023-02-27T17:04:33.232Z,5.22
2023-02-27T17:07:06.358Z,5.03
2023-02-27T17:09:35.245Z,4.57
2023-02-27T17:12:02.244Z,3.70
2023-02-27T17:14:29.807Z,4.32
2023-02-27T17:16:59.191Z,4.50
2023-02-27T17:19:27.137Z,4.80
2023-02-27T17:21:54.090Z,4.05
2023-02-27T17:24:21.452Z,4.88
2023-02-27T17:26:48.459Z,4.35
2023-02-27T17:29:16.769Z,4.63
2023-02-27T17:31:44.906Z,4.85
2023-02-27T17:34:12.000Z,6.68
2023-02-27T17:36:39.451Z,5.05
2023-02-27T17:39:06.777Z,5.20
2023-02-27T17:41:34.237Z,3.95
2023-02-27T17:44:01.956Z,4.18
2023-02-27T17:46:30.622Z,5.65
2023-02-27T17:49:00.726Z,6.03
2023-02-27T17:51:30.100Z,5.65
2023-02-27T17:53:57.727Z,5.53
2023-02-27T17:56:24.859Z,5.50
2023-02-27T17:58:52.059Z,4.97
2023-02-27T18:01:23.072Z,4.70
2023-02-27T18:03:50.426Z,7.07
2023-02-27T18:06:18.255Z,8.98
2023-02-27T18:08:46.008Z,13.63
2023-02-27T18:11:15.211Z,18.73
2023-02-27T18:13:42.860Z,13.68
2023-02-27T18:16:11.524Z,16.33
2023-02-27T18:18:39.997Z,14.30
2023-02-27T18:21:09.932Z,17.00
2023-02-27T18:23:37.592Z,16.05
2023-02-27T18:26:05.269Z,19.20
2023-02-27T18:28:32.578Z,26.38
2023-02-27T18:30:59.661Z,15.55
2023-02-27T18:33:27.621Z,14.05
2023-02-27T18:35:54.774Z,14.80
2023-02-27T18:38:22.017Z,13.10
2023-02-27T18:40:49.154Z,13.07
2023-02-27T18:43:16.145Z,18.17
2023-02-27T18:45:43.452Z,31.67
2023-02-27T18:48:10.532Z,61.97
2023-02-27T18:50:37.554Z,63.22
2023-02-27T18:53:04.946Z,52.80
2023-02-27T18:55:31.954Z,50.08
2023-02-27T18:57:58.995Z,49.65
2023-02-27T19:00:25.982Z,42.13
2023-02-27T19:02:53.127Z,26.73
2023-02-27T19:05:20.143Z,21.70
2023-02-27T19:07:47.127Z,23.45
2023-02-27T19:10:15.195Z,19.77
2023-02-27T19:12:43.094Z,25.48
2023-02-27T19:15:12.099Z,30.73
2023-02-27T19:17:39.146Z,27.98
2023-02-27T19:20:06.984Z,25.00
2023-02-27T19:22:34.437Z,26.67
2023-02-27T19:25:01.637Z,26.73
2023-02-27T19:27:28.928Z,29.67
2023-02-27T19:29:55.943Z,27.13
2023-02-27T19:32:23.211Z,28.38
2023-02-27T19:34:50.218Z,27.10
2023-02-27T19:37:17.508Z,29.95
2023-02-27T19:39:44.759Z,28.58
2023-02-27T19:42:11.949Z,29.00
2023-02-27T19:44:40.534Z,33.80
2023-02-27T19:47:07.679Z,35.80
2023-02-27T19:49:35.046Z,34.75
2023-02-27T19:52:03.085Z,40.03
2023-02-27T19:54:41.438Z,39.90
2023-02-27T19:57:08.574Z,38.25
2023-02-27T19:59:36.031Z,33.00
2023-02-27T20:02:03.105Z,37.80
2023-02-27T20:04:30.540Z,48.10
2023-02-27T20:06:57.567Z,56.03
2023-02-27T20:09:24.619Z,63.58
2023-02-27T20:11:54.107Z,70.57
2023-02-27T20:14:21.143Z,71.03
2023-02-27T20:16:48.324Z,71.70
2023-02-27T20:19:18.036Z,69.75
2023-02-27T20:21:45.686Z,62.80
2023-02-27T20:24:14.385Z,58.90
2023-02-27T20:26:44.700Z,58.53
2023-02-27T20:29:18.272Z,57.97
2023-02-27T20:31:47.300Z,72.32
2023-02-27T20:34:17.004Z,70.60
2023-02-27T20:36:44.575Z,68.97
2023-02-27T20:39:12.540Z,65.60
2023-02-27T20:41:40.446Z,61.95
2023-02-27T20:44:08.842Z,65.15
2023-02-27T20:46:36.539Z,75.00
2023-02-27T20:49:05.078Z,67.28
2023-02-27T20:51:36.147Z,59.63
2023-02-27T20:54:06.283Z,61.58
2023-02-27T20:56:36.438Z,62.97
2023-02-27T20:59:06.600Z,59.92
2023-02-27T21:01:34.077Z,60.63
2023-02-27T21:04:01.658Z,63.38
2023-02-27T21:06:30.506Z,60.40
2023-02-27T21:08:57.836Z,55.50
2023-02-27T21:11:27.953Z,59.95
2023-02-27T21:13:56.655Z,55.88
2023-02-27T21:16:25.892Z,58.28
2023-02-27T21:18:56.472Z,54.35
2023-02-27T21:23:59.594Z,66.85
2023-02-27T21:26:38.690Z,65.63
2023-02-27T21:29:27.710Z,58.72
2023-02-27T21:31:54.744Z,58.80
2023-02-27T21:34:25.741Z,53.90
2023-02-27T21:36:54.165Z,48.42
2023-02-27T21:39:26.567Z,41.75
2023-02-27T21:41:54.212Z,43.22
2023-02-27T21:44:25.211Z,46.90
2023-02-27T21:46:55.040Z,41.50
2023-02-27T21:49:25.011Z,40.92
2023-02-27T21:51:52.361Z,49.25
2023-02-27T21:54:22.590Z,42.28
2023-02-27T21:56:50.216Z,41.90
2023-02-27T21:59:19.012Z,43.08
2023-02-27T22:01:47.659Z,44.15
2023-02-27T22:04:16.109Z,43.95
2023-02-27T22:06:43.393Z,40.78
2023-02-27T22:09:10.369Z,42.25
2023-02-27T22:11:37.386Z,45.60
2023-02-27T22:14:06.877Z,50.45
2023-02-27T22:16:34.502Z,47.63
2023-02-27T22:19:07.679Z,44.35
2023-02-27T22:21:34.988Z,46.92
2023-02-27T22:24:02.003Z,46.38
2023-02-27T22:26:29.355Z,43.05
2023-02-27T22:28:57.296Z,45.63
2023-02-27T22:31:27.669Z,49.70
2023-02-27T22:33:56.118Z,43.53
2023-02-27T22:36:25.917Z,43.22
2023-02-27T22:38:53.628Z,39.33
2023-02-27T22:41:24.536Z,41.05
2023-02-27T22:43:51.604Z,41.53
2023-02-27T22:46:25.932Z,41.08
2023-02-27T22:48:57.912Z,54.85
2023-02-27T22:51:27.856Z,65.25
2023-02-27T22:53:57.274Z,67.60
2023-02-27T22:56:25.175Z,75.25
2023-02-27T22:58:52.538Z,70.53
2023-02-27T23:01:21.210Z,70.85
2023-02-27T23:03:49.411Z,60.92
2023-02-27T23:06:20.065Z,59.35
2023-02-27T23:08:47.732Z,56.88
2023-02-27T23:11:16.097Z,63.22
2023-02-27T23:13:43.669Z,59.63
2023-02-27T23:16:12.473Z,63.45
2023-02-27T23:18:46.702Z,70.63
2023-02-27T23:21:16.544Z,75.53
2023-02-27T23:23:43.657Z,84.68
2023-02-27T23:26:10.916Z,74.72
2023-02-27T23:28:38.739Z,70.65
2023-02-27T23:31:07.449Z,71.57
2023-02-27T23:33:34.809Z,71.78
2023-02-27T23:36:02.245Z,73.03
2023-02-27T23:38:29.367Z,69.43
2023-02-27T23:40:56.520Z,73.32
2023-02-27T23:43:43.393Z,71.55
2023-02-27T23:46:13.061Z,67.25
2023-02-27T23:48:40.259Z,65.07
2023-02-27T23:51:08.669Z,63.17
2023-02-27T23:53:37.485Z,63.72
2023-02-27T23:56:13.607Z,60.38
2023-02-27T23:58:40.703Z,55.17
